sensor_id;sensor_type;location;lat;lon;timestamp;temperature;humidity
10149;DHT22;5115;50.920;6.376;2023-07-31T00:01:22;18.40;99.90
10149;DHT22;5115;50.920;6.376;2023-07-31T00:03:49;18.40;99.90
10149;DHT22;5115;50.920;6.376;2023-07-31T00:06:14;18.80;99.90
10149;DHT22;5115;50.920;6.376;2023-07-31T00:08:40;18.80;99.90
10149;DHT22;5115;50.920;6.376;2023-07-31T00:11:06;18.40;99.90
10149;DHT22;5115;50.920;6.376;2023-07-31T00:13:31;18.40;99.90
10149;DHT22;5115;50.920;6.376;2023-07-31T00:15:57;18.40;99.90
10149;DHT22;5115;50.920;6.376;2023-07-31T00:18:22;18.50;99.90
10149;DHT22;5115;50.920;6.376;2023-07-31T00:20:48;18.50;99.90
10149;DHT22;5115;50.920;6.376;2023-07-31T00:23:14;18.50;99.90
10149;DHT22;5115;50.920;6.376;2023-07-31T00:25:39;18.40;99.90
10149;DHT22;5115;50.920;6.376;2023-07-31T00:28:05;18.40;99.90
10149;DHT22;5115;50.920;6.376;2023-07-31T00:30:30;18.40;99.90
10149;DHT22;5115;50.920;6.376;2023-07-31T00:32:56;18.40;99.90
10149;DHT22;5115;50.920;6.376;2023-07-31T00:35:22;18.50;99.90
10149;DHT22;5115;50.920;6.376;2023-07-31T00:37:47;18.50;99.90
10149;DHT22;5115;50.920;6.376;2023-07-31T00:40:13;18.50;99.90
10149;DHT22;5115;50.920;6.376;2023-07-31T00:42:39;18.40;99.90
10149;DHT22;5115;50.920;6.376;2023-07-31T00:45:05;18.50;99.90
10149;DHT22;5115;50.920;6.376;2023-07-31T00:47:31;18.50;99.90
10149;DHT22;5115;50.920;6.376;2023-07-31T00:49:57;18.50;99.90
10149;DHT22;5115;50.920;6.376;2023-07-31T00:52:23;18.50;99.90
10149;DHT22;5115;50.920;6.376;2023-07-31T00:54:49;18.40;99.90
10149;DHT22;5115;50.920;6.376;2023-07-31T00:57:15;18.70;99.90
10149;DHT22;5115;50.920;6.376;2023-07-31T00:59:40;18.50;99.90
10149;DHT22;5115;50.920;6.376;2023-07-31T01:02:06;18.40;99.90
10149;DHT22;5115;50.920;6.376;2023-07-31T01:04:32;18.60;99.90
10149;DHT22;5115;50.920;6.376;2023-07-31T01:07:21;18.40;99.90
10149;DHT22;5115;50.920;6.376;2023-07-31T01:09:50;18.40;99.90
10149;DHT22;5115;50.920;6.376;2023-07-31T01:12:17;18.40;99.90
10149;DHT22;5115;50.920;6.376;2023-07-31T01:15:02;18.50;99.90
10149;DHT22;5115;50.920;6.376;2023-07-31T01:17:28;18.40;99.90
10149;DHT22;5115;50.920;6.376;2023-07-31T01:19:55;18.40;99.90
10149;DHT22;5115;50.920;6.376;2023-07-31T01:25:23;18.40;99.90
10149;DHT22;5115;50.920;6.376;2023-07-31T01:28:02;18.40;99.90
10149;DHT22;5115;50.920;6.376;2023-07-31T01:30:32;18.50;99.90
10149;DHT22;5115;50.920;6.376;2023-07-31T01:33:03;18.40;99.90
10149;DHT22;5115;50.920;6.376;2023-07-31T01:35:37;18.50;99.90
10149;DHT22;5115;50.920;6.376;2023-07-31T01:38:04;18.40;99.90
10149;DHT22;5115;50.920;6.376;2023-07-31T01:40:30;18.50;99.90
10149;DHT22;5115;50.920;6.376;2023-07-31T01:42:55;18.50;99.90
10149;DHT22;5115;50.920;6.376;2023-07-31T01:45:21;18.60;99.90
10149;DHT22;5115;50.920;6.376;2023-07-31T01:47:47;18.60;99.90
10149;DHT22;5115;50.920;6.376;2023-07-31T01:50:12;18.60;99.90
10149;DHT22;5115;50.920;6.376;2023-07-31T01:52:38;18.60;99.90
10149;DHT22;5115;50.920;6.376;2023-07-31T01:55:04;22.20;99.90
10149;DHT22;5115;50.920;6.376;2023-07-31T01:57:29;18.60;99.90
10149;DHT22;5115;50.920;6.376;2023-07-31T01:59:55;18.60;99.90
10149;DHT22;5115;50.920;6.376;2023-07-31T02:02:22;18.60;99.90
10149;DHT22;5115;50.920;6.376;2023-07-31T02:04:48;18.60;99.90
10149;DHT22;5115;50.920;6.376;2023-07-31T02:07:14;18.60;99.90
10149;DHT22;5115;50.920;6.376;2023-07-31T02:09:40;18.60;99.90
10149;DHT22;5115;50.920;6.376;2023-07-31T02:12:06;18.60;99.90
10149;DHT22;5115;50.920;6.376;2023-07-31T02:14:34;16.70;99.90
10149;DHT22;5115;50.920;6.376;2023-07-31T02:17:00;18.70;99.90
10149;DHT22;5115;50.920;6.376;2023-07-31T02:19:25;19.50;99.90
10149;DHT22;5115;50.920;6.376;2023-07-31T02:21:51;19.60;99.90
10149;DHT22;5115;50.920;6.376;2023-07-31T02:24:16;18.60;99.90
10149;DHT22;5115;50.920;6.376;2023-07-31T02:29:08;18.70;99.90
10149;DHT22;5115;50.920;6.376;2023-07-31T02:31:34;18.70;99.90
10149;DHT22;5115;50.920;6.376;2023-07-31T02:34:00;18.70;99.90
10149;DHT22;5115;50.920;6.376;2023-07-31T02:36:26;18.70;99.90
10149;DHT22;5115;50.920;6.376;2023-07-31T02:38:51;18.70;99.90
10149;DHT22;5115;50.920;6.376;2023-07-31T02:41:17;18.80;99.90
10149;DHT22;5115;50.920;6.376;2023-07-31T02:43:42;18.80;99.90
10149;DHT22;5115;50.920;6.376;2023-07-31T02:46:08;18.80;99.90
10149;DHT22;5115;50.920;6.376;2023-07-31T02:48:33;18.80;99.90
10149;DHT22;5115;50.920;6.376;2023-07-31T02:50:59;18.70;99.90
10149;DHT22;5115;50.920;6.376;2023-07-31T02:53:24;18.70;99.90
10149;DHT22;5115;50.920;6.376;2023-07-31T02:55:50;18.80;99.90
10149;DHT22;5115;50.920;6.376;2023-07-31T02:58:15;18.70;99.90
10149;DHT22;5115;50.920;6.376;2023-07-31T03:00:44;18.70;99.90
10149;DHT22;5115;50.920;6.376;2023-07-31T03:03:10;18.70;99.90
10149;DHT22;5115;50.920;6.376;2023-07-31T03:05:36;18.80;99.90
10149;DHT22;5115;50.920;6.376;2023-07-31T03:08:02;18.80;99.90
10149;DHT22;5115;50.920;6.376;2023-07-31T03:10:28;18.80;99.90
10149;DHT22;5115;50.920;6.376;2023-07-31T03:12:53;18.80;99.90
10149;DHT22;5115;50.920;6.376;2023-07-31T03:15:19;18.80;99.90
10149;DHT22;5115;50.920;6.376;2023-07-31T03:17:44;18.70;99.90
10149;DHT22;5115;50.920;6.376;2023-07-31T03:20:10;18.80;99.90
10149;DHT22;5115;50.920;6.376;2023-07-31T03:22:36;18.80;99.90
10149;DHT22;5115;50.920;6.376;2023-07-31T03:25:02;18.70;99.90
10149;DHT22;5115;50.920;6.376;2023-07-31T03:27:28;18.70;99.90
10149;DHT22;5115;50.920;6.376;2023-07-31T03:29:54;18.80;99.90
10149;DHT22;5115;50.920;6.376;2023-07-31T03:32:19;18.80;99.90
10149;DHT22;5115;50.920;6.376;2023-07-31T03:34:45;18.80;99.90
10149;DHT22;5115;50.920;6.376;2023-07-31T03:37:10;18.80;99.90
10149;DHT22;5115;50.920;6.376;2023-07-31T03:39:36;18.80;99.90
10149;DHT22;5115;50.920;6.376;2023-07-31T03:42:01;19.50;99.90
10149;DHT22;5115;50.920;6.376;2023-07-31T03:44:27;18.80;99.90
10149;DHT22;5115;50.920;6.376;2023-07-31T03:46:54;18.80;99.90
10149;DHT22;5115;50.920;6.376;2023-07-31T03:49:20;18.80;99.90
10149;DHT22;5115;50.920;6.376;2023-07-31T03:51:45;18.70;99.90
10149;DHT22;5115;50.920;6.376;2023-07-31T03:54:11;18.70;99.90
10149;DHT22;5115;50.920;6.376;2023-07-31T03:56:36;18.80;99.90
10149;DHT22;5115;50.920;6.376;2023-07-31T03:59:03;18.80;99.90
10149;DHT22;5115;50.920;6.376;2023-07-31T04:01:29;18.80;99.90
10149;DHT22;5115;50.920;6.376;2023-07-31T04:03:54;18.90;99.90
10149;DHT22;5115;50.920;6.376;2023-07-31T04:06:20;18.90;99.90
10149;DHT22;5115;50.920;6.376;2023-07-31T04:08:46;18.90;99.90
10149;DHT22;5115;50.920;6.376;2023-07-31T04:11:11;18.80;99.90
10149;DHT22;5115;50.920;6.376;2023-07-31T04:13:38;18.80;99.90
10149;DHT22;5115;50.920;6.376;2023-07-31T04:16:04;18.80;99.90
10149;DHT22;5115;50.920;6.376;2023-07-31T04:18:30;18.80;99.90
10149;DHT22;5115;50.920;6.376;2023-07-31T04:20:57;18.90;99.90
10149;DHT22;5115;50.920;6.376;2023-07-31T04:23:24;18.90;99.90
10149;DHT22;5115;50.920;6.376;2023-07-31T04:25:50;18.90;99.90
10149;DHT22;5115;50.920;6.376;2023-07-31T04:28:15;18.90;99.90
10149;DHT22;5115;50.920;6.376;2023-07-31T04:30:41;17.90;99.90
10149;DHT22;5115;50.920;6.376;2023-07-31T04:33:06;18.90;99.90
10149;DHT22;5115;50.920;6.376;2023-07-31T04:35:32;18.90;99.90
10149;DHT22;5115;50.920;6.376;2023-07-31T04:37:58;18.90;99.90
10149;DHT22;5115;50.920;6.376;2023-07-31T04:40:23;18.90;99.90
10149;DHT22;5115;50.920;6.376;2023-07-31T04:42:49;18.90;99.90
10149;DHT22;5115;50.920;6.376;2023-07-31T04:45:14;19.00;99.90
10149;DHT22;5115;50.920;6.376;2023-07-31T04:47:40;19.00;99.90
10149;DHT22;5115;50.920;6.376;2023-07-31T04:50:06;19.00;99.90
10149;DHT22;5115;50.920;6.376;2023-07-31T04:52:32;19.00;99.90
10149;DHT22;5115;50.920;6.376;2023-07-31T04:54:57;19.00;99.90
10149;DHT22;5115;50.920;6.376;2023-07-31T04:57:23;16.60;99.90
10149;DHT22;5115;50.920;6.376;2023-07-31T04:59:48;19.10;99.90
10149;DHT22;5115;50.920;6.376;2023-07-31T05:02:15;19.00;99.90
10149;DHT22;5115;50.920;6.376;2023-07-31T05:04:41;19.00;99.90
10149;DHT22;5115;50.920;6.376;2023-07-31T05:07:06;19.00;99.90
10149;DHT22;5115;50.920;6.376;2023-07-31T05:09:32;19.00;99.90
10149;DHT22;5115;50.920;6.376;2023-07-31T05:11:57;19.30;99.90
10149;DHT22;5115;50.920;6.376;2023-07-31T05:14:23;19.20;99.90
10149;DHT22;5115;50.920;6.376;2023-07-31T05:16:48;19.10;99.90
10149;DHT22;5115;50.920;6.376;2023-07-31T05:19:14;19.20;99.90
10149;DHT22;5115;50.920;6.376;2023-07-31T05:21:40;19.10;99.90
10149;DHT22;5115;50.920;6.376;2023-07-31T05:24:05;19.10;99.90
10149;DHT22;5115;50.920;6.376;2023-07-31T05:26:31;19.10;99.90
10149;DHT22;5115;50.920;6.376;2023-07-31T05:28:56;19.10;99.90
10149;DHT22;5115;50.920;6.376;2023-07-31T05:31:23;19.10;99.90
10149;DHT22;5115;50.920;6.376;2023-07-31T05:33:50;19.10;99.90
10149;DHT22;5115;50.920;6.376;2023-07-31T05:36:16;19.40;99.90
10149;DHT22;5115;50.920;6.376;2023-07-31T05:38:41;19.10;99.90
10149;DHT22;5115;50.920;6.376;2023-07-31T05:41:09;19.10;99.90
10149;DHT22;5115;50.920;6.376;2023-07-31T05:43:35;19.10;99.90
10149;DHT22;5115;50.920;6.376;2023-07-31T05:46:00;19.20;99.90
10149;DHT22;5115;50.920;6.376;2023-07-31T05:48:27;19.10;99.90
10149;DHT22;5115;50.920;6.376;2023-07-31T05:50:52;19.10;99.90
10149;DHT22;5115;50.920;6.376;2023-07-31T05:53:18;19.10;99.90
10149;DHT22;5115;50.920;6.376;2023-07-31T05:55:44;19.10;99.90
10149;DHT22;5115;50.920;6.376;2023-07-31T05:58:09;19.10;99.90
10149;DHT22;5115;50.920;6.376;2023-07-31T06:00:35;19.10;99.90
10149;DHT22;5115;50.920;6.376;2023-07-31T06:03:01;18.40;99.90
10149;DHT22;5115;50.920;6.376;2023-07-31T06:05:27;19.00;99.90
10149;DHT22;5115;50.920;6.376;2023-07-31T06:07:54;19.00;99.90
10149;DHT22;5115;50.920;6.376;2023-07-31T06:10:20;15.00;99.90
10149;DHT22;5115;50.920;6.376;2023-07-31T06:12:45;18.90;99.90
10149;DHT22;5115;50.920;6.376;2023-07-31T06:15:11;18.90;99.90
10149;DHT22;5115;50.920;6.376;2023-07-31T06:17:36;18.90;99.90
10149;DHT22;5115;50.920;6.376;2023-07-31T06:20:02;18.90;99.90
10149;DHT22;5115;50.920;6.376;2023-07-31T06:22:30;18.90;99.90
10149;DHT22;5115;50.920;6.376;2023-07-31T06:24:56;19.00;99.90
10149;DHT22;5115;50.920;6.376;2023-07-31T06:27:21;19.20;99.90
10149;DHT22;5115;50.920;6.376;2023-07-31T06:29:47;19.30;99.90
10149;DHT22;5115;50.920;6.376;2023-07-31T06:32:13;19.20;99.90
10149;DHT22;5115;50.920;6.376;2023-07-31T06:34:39;19.50;99.90
10149;DHT22;5115;50.920;6.376;2023-07-31T06:37:04;19.70;99.90
10149;DHT22;5115;50.920;6.376;2023-07-31T06:39:30;19.60;99.90
10149;DHT22;5115;50.920;6.376;2023-07-31T06:41:56;19.80;99.90
10149;DHT22;5115;50.920;6.376;2023-07-31T06:44:21;19.80;99.90
10149;DHT22;5115;50.920;6.376;2023-07-31T06:46:47;20.00;99.90
10149;DHT22;5115;50.920;6.376;2023-07-31T06:49:12;19.80;99.90
10149;DHT22;5115;50.920;6.376;2023-07-31T06:51:40;19.80;99.90
10149;DHT22;5115;50.920;6.376;2023-07-31T06:54:07;19.70;99.90
10149;DHT22;5115;50.920;6.376;2023-07-31T06:56:33;19.70;99.90
10149;DHT22;5115;50.920;6.376;2023-07-31T06:58:58;22.30;99.90
10149;DHT22;5115;50.920;6.376;2023-07-31T07:01:24;17.40;99.90
10149;DHT22;5115;50.920;6.376;2023-07-31T07:03:50;19.60;99.90
10149;DHT22;5115;50.920;6.376;2023-07-31T07:06:18;19.70;99.90
10149;DHT22;5115;50.920;6.376;2023-07-31T07:08:44;19.60;99.90
10149;DHT22;5115;50.920;6.376;2023-07-31T07:11:10;19.60;99.90
10149;DHT22;5115;50.920;6.376;2023-07-31T07:13:36;19.70;99.90
10149;DHT22;5115;50.920;6.376;2023-07-31T07:16:01;19.60;99.90
10149;DHT22;5115;50.920;6.376;2023-07-31T07:18:27;19.50;99.90
10149;DHT22;5115;50.920;6.376;2023-07-31T07:20:54;19.50;99.90
10149;DHT22;5115;50.920;6.376;2023-07-31T07:23:20;19.50;99.90
10149;DHT22;5115;50.920;6.376;2023-07-31T07:25:47;19.50;99.90
10149;DHT22;5115;50.920;6.376;2023-07-31T07:28:13;19.40;99.90
10149;DHT22;5115;50.920;6.376;2023-07-31T07:30:39;19.20;99.90
10149;DHT22;5115;50.920;6.376;2023-07-31T07:33:05;19.10;99.90
10149;DHT22;5115;50.920;6.376;2023-07-31T07:35:33;19.10;99.90
10149;DHT22;5115;50.920;6.376;2023-07-31T07:37:59;19.10;99.90
10149;DHT22;5115;50.920;6.376;2023-07-31T07:40:24;19.00;99.90
10149;DHT22;5115;50.920;6.376;2023-07-31T07:42:50;19.50;99.90
10149;DHT22;5115;50.920;6.376;2023-07-31T07:45:17;19.00;99.90
10149;DHT22;5115;50.920;6.376;2023-07-31T07:47:42;19.10;99.90
10149;DHT22;5115;50.920;6.376;2023-07-31T07:50:08;19.10;99.90
10149;DHT22;5115;50.920;6.376;2023-07-31T07:52:34;19.10;99.90
10149;DHT22;5115;50.920;6.376;2023-07-31T07:55:00;19.20;99.90
10149;DHT22;5115;50.920;6.376;2023-07-31T07:57:28;19.20;99.90
10149;DHT22;5115;50.920;6.376;2023-07-31T07:59:53;19.20;99.90
10149;DHT22;5115;50.920;6.376;2023-07-31T08:04:45;19.40;99.90
10149;DHT22;5115;50.920;6.376;2023-07-31T08:07:11;19.50;99.90
10149;DHT22;5115;50.920;6.376;2023-07-31T08:09:37;19.60;99.90
10149;DHT22;5115;50.920;6.376;2023-07-31T08:12:03;19.70;99.90
10149;DHT22;5115;50.920;6.376;2023-07-31T08:14:29;19.80;99.90
10149;DHT22;5115;50.920;6.376;2023-07-31T08:16:55;19.90;99.90
10149;DHT22;5115;50.920;6.376;2023-07-31T08:19:21;20.00;99.90
10149;DHT22;5115;50.920;6.376;2023-07-31T08:21:46;20.00;99.90
10149;DHT22;5115;50.920;6.376;2023-07-31T08:24:12;20.10;99.90
10149;DHT22;5115;50.920;6.376;2023-07-31T08:26:37;20.10;99.90
10149;DHT22;5115;50.920;6.376;2023-07-31T08:29:03;20.00;99.90
10149;DHT22;5115;50.920;6.376;2023-07-31T08:31:29;20.00;99.90
10149;DHT22;5115;50.920;6.376;2023-07-31T08:33:55;19.90;99.90
10149;DHT22;5115;50.920;6.376;2023-07-31T08:36:20;20.00;99.90
10149;DHT22;5115;50.920;6.376;2023-07-31T08:46:05;19.70;99.90
10149;DHT22;5115;50.920;6.376;2023-07-31T08:48:32;19.70;99.90
10149;DHT22;5115;50.920;6.376;2023-07-31T08:50:58;19.60;99.90
10149;DHT22;5115;50.920;6.376;2023-07-31T08:53:25;19.70;99.90
10149;DHT22;5115;50.920;6.376;2023-07-31T08:55:52;19.70;99.90
10149;DHT22;5115;50.920;6.376;2023-07-31T08:58:19;19.70;99.90
10149;DHT22;5115;50.920;6.376;2023-07-31T09:00:46;19.70;99.90
10149;DHT22;5115;50.920;6.376;2023-07-31T09:03:17;19.60;99.90
10149;DHT22;5115;50.920;6.376;2023-07-31T09:05:45;19.70;99.90
10149;DHT22;5115;50.920;6.376;2023-07-31T09:08:13;19.80;99.90
10149;DHT22;5115;50.920;6.376;2023-07-31T09:10:44;20.00;99.90
10149;DHT22;5115;50.920;6.376;2023-07-31T09:13:12;20.20;99.90
10149;DHT22;5115;50.920;6.376;2023-07-31T09:15:39;20.30;99.90
10149;DHT22;5115;50.920;6.376;2023-07-31T09:18:06;20.20;99.90
10149;DHT22;5115;50.920;6.376;2023-07-31T09:20:32;20.30;99.90
10149;DHT22;5115;50.920;6.376;2023-07-31T09:23:12;20.50;99.90
10149;DHT22;5115;50.920;6.376;2023-07-31T09:25:39;20.60;99.90
10149;DHT22;5115;50.920;6.376;2023-07-31T09:28:09;20.70;99.90
10149;DHT22;5115;50.920;6.376;2023-07-31T09:31:04;20.80;99.90
10149;DHT22;5115;50.920;6.376;2023-07-31T09:33:30;21.10;99.90
10149;DHT22;5115;50.920;6.376;2023-07-31T09:35:58;21.80;99.90
10149;DHT22;5115;50.920;6.376;2023-07-31T09:38:25;21.10;99.90
10149;DHT22;5115;50.920;6.376;2023-07-31T09:40:50;21.10;99.90
10149;DHT22;5115;50.920;6.376;2023-07-31T09:43:21;21.20;99.90
10149;DHT22;5115;50.920;6.376;2023-07-31T09:45:47;21.10;99.90
10149;DHT22;5115;50.920;6.376;2023-07-31T09:48:17;20.90;99.90
10149;DHT22;5115;50.920;6.376;2023-07-31T09:50:47;20.80;99.90
10149;DHT22;5115;50.920;6.376;2023-07-31T09:53:14;20.60;99.90
10149;DHT22;5115;50.920;6.376;2023-07-31T09:55:42;20.60;99.90
10149;DHT22;5115;50.920;6.376;2023-07-31T09:58:12;20.50;99.90
10149;DHT22;5115;50.920;6.376;2023-07-31T10:00:39;20.50;99.90
10149;DHT22;5115;50.920;6.376;2023-07-31T10:03:09;20.40;99.90
10149;DHT22;5115;50.920;6.376;2023-07-31T10:05:42;20.60;99.90
10149;DHT22;5115;50.920;6.376;2023-07-31T10:08:09;20.80;99.90
10149;DHT22;5115;50.920;6.376;2023-07-31T10:10:41;20.80;99.90
10149;DHT22;5115;50.920;6.376;2023-07-31T10:13:08;21.10;99.90
10149;DHT22;5115;50.920;6.376;2023-07-31T10:15:35;21.30;99.90
10149;DHT22;5115;50.920;6.376;2023-07-31T10:18:01;21.40;99.90
10149;DHT22;5115;50.920;6.376;2023-07-31T10:20:28;21.20;99.90
10149;DHT22;5115;50.920;6.376;2023-07-31T10:22:55;21.20;99.90
10149;DHT22;5115;50.920;6.376;2023-07-31T10:25:21;21.10;99.90
10149;DHT22;5115;50.920;6.376;2023-07-31T10:27:47;20.90;99.90
10149;DHT22;5115;50.920;6.376;2023-07-31T10:30:20;20.70;99.90
10149;DHT22;5115;50.920;6.376;2023-07-31T10:32:45;20.70;99.90
10149;DHT22;5115;50.920;6.376;2023-07-31T10:35:14;20.60;99.90
10149;DHT22;5115;50.920;6.376;2023-07-31T10:37:42;20.70;99.90
10149;DHT22;5115;50.920;6.376;2023-07-31T10:40:41;20.60;99.90
10149;DHT22;5115;50.920;6.376;2023-07-31T10:43:07;20.70;99.90
10149;DHT22;5115;50.920;6.376;2023-07-31T10:48:07;20.60;99.90
10149;DHT22;5115;50.920;6.376;2023-07-31T10:50:38;20.60;99.90
10149;DHT22;5115;50.920;6.376;2023-07-31T10:53:04;20.70;99.90
10149;DHT22;5115;50.920;6.376;2023-07-31T10:55:33;21.10;99.90
10149;DHT22;5115;50.920;6.376;2023-07-31T10:58:11;21.20;99.90
10149;DHT22;5115;50.920;6.376;2023-07-31T11:00:39;21.60;99.90
10149;DHT22;5115;50.920;6.376;2023-07-31T11:03:16;21.80;99.90
10149;DHT22;5115;50.920;6.376;2023-07-31T11:05:53;21.90;99.90
10149;DHT22;5115;50.920;6.376;2023-07-31T11:08:26;22.50;99.90
10149;DHT22;5115;50.920;6.376;2023-07-31T11:13:27;22.30;99.90
10149;DHT22;5115;50.920;6.376;2023-07-31T11:15:52;22.30;99.90
10149;DHT22;5115;50.920;6.376;2023-07-31T11:18:18;22.30;99.90
10149;DHT22;5115;50.920;6.376;2023-07-31T11:20:44;20.30;99.90
10149;DHT22;5115;50.920;6.376;2023-07-31T11:23:10;22.20;99.90
10149;DHT22;5115;50.920;6.376;2023-07-31T11:25:37;22.10;99.90
10149;DHT22;5115;50.920;6.376;2023-07-31T11:28:08;22.10;99.90
10149;DHT22;5115;50.920;6.376;2023-07-31T11:30:34;22.00;99.90
10149;DHT22;5115;50.920;6.376;2023-07-31T11:33:05;21.80;99.90
10149;DHT22;5115;50.920;6.376;2023-07-31T11:35:32;21.60;99.90
10149;DHT22;5115;50.920;6.376;2023-07-31T11:37:58;21.50;99.90
10149;DHT22;5115;50.920;6.376;2023-07-31T11:40:23;21.50;99.90
10149;DHT22;5115;50.920;6.376;2023-07-31T11:42:57;21.40;99.90
10149;DHT22;5115;50.920;6.376;2023-07-31T11:45:25;21.40;99.90
10149;DHT22;5115;50.920;6.376;2023-07-31T11:47:54;21.10;99.90
10149;DHT22;5115;50.920;6.376;2023-07-31T11:50:20;21.10;99.90
10149;DHT22;5115;50.920;6.376;2023-07-31T11:52:46;20.90;99.90
10149;DHT22;5115;50.920;6.376;2023-07-31T11:55:13;20.90;99.90
10149;DHT22;5115;50.920;6.376;2023-07-31T11:57:41;20.90;99.90
10149;DHT22;5115;50.920;6.376;2023-07-31T12:00:09;20.90;99.90
10149;DHT22;5115;50.920;6.376;2023-07-31T12:02:38;20.90;99.90
10149;DHT22;5115;50.920;6.376;2023-07-31T12:05:11;20.70;99.90
10149;DHT22;5115;50.920;6.376;2023-07-31T12:07:51;20.60;99.90
10149;DHT22;5115;50.920;6.376;2023-07-31T12:10:31;20.60;99.90
10149;DHT22;5115;50.920;6.376;2023-07-31T12:13:05;20.60;99.90
10149;DHT22;5115;50.920;6.376;2023-07-31T12:18:00;20.50;99.90
10149;DHT22;5115;50.920;6.376;2023-07-31T12:20:26;20.50;99.90
10149;DHT22;5115;50.920;6.376;2023-07-31T12:22:51;20.50;99.90
10149;DHT22;5115;50.920;6.376;2023-07-31T12:25:17;20.50;99.90
10149;DHT22;5115;50.920;6.376;2023-07-31T12:27:45;20.60;99.90
10149;DHT22;5115;50.920;6.376;2023-07-31T12:30:34;20.60;99.90
10149;DHT22;5115;50.920;6.376;2023-07-31T12:33:12;20.70;99.90
10149;DHT22;5115;50.920;6.376;2023-07-31T12:35:45;20.80;99.90
10149;DHT22;5115;50.920;6.376;2023-07-31T12:38:12;20.00;99.90
10149;DHT22;5115;50.920;6.376;2023-07-31T12:40:39;20.80;99.90
10149;DHT22;5115;50.920;6.376;2023-07-31T12:43:05;20.80;99.90
10149;DHT22;5115;50.920;6.376;2023-07-31T12:45:31;20.80;99.90
10149;DHT22;5115;50.920;6.376;2023-07-31T12:47:58;20.80;99.90
10149;DHT22;5115;50.920;6.376;2023-07-31T12:50:23;20.70;99.90
10149;DHT22;5115;50.920;6.376;2023-07-31T12:52:55;20.70;99.90
10149;DHT22;5115;50.920;6.376;2023-07-31T12:55:22;20.80;99.90
10149;DHT22;5115;50.920;6.376;2023-07-31T12:57:50;20.90;99.90
10149;DHT22;5115;50.920;6.376;2023-07-31T13:00:16;20.90;99.90
10149;DHT22;5115;50.920;6.376;2023-07-31T13:02:41;21.20;99.90
10149;DHT22;5115;50.920;6.376;2023-07-31T13:05:08;21.30;99.90
10149;DHT22;5115;50.920;6.376;2023-07-31T13:07:33;23.00;99.90
10149;DHT22;5115;50.920;6.376;2023-07-31T13:09:59;21.60;99.90
10149;DHT22;5115;50.920;6.376;2023-07-31T13:12:24;21.70;99.90
10149;DHT22;5115;50.920;6.376;2023-07-31T13:14:51;21.80;99.90
10149;DHT22;5115;50.920;6.376;2023-07-31T13:17:16;21.80;99.90
10149;DHT22;5115;50.920;6.376;2023-07-31T13:19:43;21.80;99.90
10149;DHT22;5115;50.920;6.376;2023-07-31T13:22:08;21.90;99.90
10149;DHT22;5115;50.920;6.376;2023-07-31T13:24:34;22.00;99.90
10149;DHT22;5115;50.920;6.376;2023-07-31T13:26:59;22.10;99.90
10149;DHT22;5115;50.920;6.376;2023-07-31T13:29:25;22.30;99.90
10149;DHT22;5115;50.920;6.376;2023-07-31T13:31:52;22.40;99.90
10149;DHT22;5115;50.920;6.376;2023-07-31T13:34:18;22.50;99.90
10149;DHT22;5115;50.920;6.376;2023-07-31T13:36:43;23.70;99.90
10149;DHT22;5115;50.920;6.376;2023-07-31T13:39:09;23.00;99.90
10149;DHT22;5115;50.920;6.376;2023-07-31T13:41:35;23.20;99.90
10149;DHT22;5115;50.920;6.376;2023-07-31T13:44:00;23.40;99.90
10149;DHT22;5115;50.920;6.376;2023-07-31T13:46:26;23.20;99.90
10149;DHT22;5115;50.920;6.376;2023-07-31T13:48:52;25.30;99.90
10149;DHT22;5115;50.920;6.376;2023-07-31T13:51:21;22.80;99.90
10149;DHT22;5115;50.920;6.376;2023-07-31T13:53:46;22.60;99.90
10149;DHT22;5115;50.920;6.376;2023-07-31T13:56:12;22.50;99.90
10149;DHT22;5115;50.920;6.376;2023-07-31T13:58:38;22.40;99.90
10149;DHT22;5115;50.920;6.376;2023-07-31T14:01:03;22.20;99.90
10149;DHT22;5115;50.920;6.376;2023-07-31T14:03:29;22.20;99.90
10149;DHT22;5115;50.920;6.376;2023-07-31T14:05:55;22.40;99.90
10149;DHT22;5115;50.920;6.376;2023-07-31T14:08:21;22.40;99.90
10149;DHT22;5115;50.920;6.376;2023-07-31T14:10:47;21.60;99.90
10149;DHT22;5115;50.920;6.376;2023-07-31T14:13:12;22.60;99.90
10149;DHT22;5115;50.920;6.376;2023-07-31T14:15:39;22.50;99.90
10149;DHT22;5115;50.920;6.376;2023-07-31T14:18:04;22.40;99.90
10149;DHT22;5115;50.920;6.376;2023-07-31T14:20:30;22.40;99.90
10149;DHT22;5115;50.920;6.376;2023-07-31T14:22:57;23.30;99.90
10149;DHT22;5115;50.920;6.376;2023-07-31T14:25:24;22.50;99.90
10149;DHT22;5115;50.920;6.376;2023-07-31T14:27:51;22.50;99.90
10149;DHT22;5115;50.920;6.376;2023-07-31T14:30:17;22.40;99.90
10149;DHT22;5115;50.920;6.376;2023-07-31T14:32:44;22.20;99.90
10149;DHT22;5115;50.920;6.376;2023-07-31T14:35:11;22.10;99.90
10149;DHT22;5115;50.920;6.376;2023-07-31T14:37:44;22.10;99.90
10149;DHT22;5115;50.920;6.376;2023-07-31T14:40:12;21.80;99.90
10149;DHT22;5115;50.920;6.376;2023-07-31T14:42:38;21.80;99.90
10149;DHT22;5115;50.920;6.376;2023-07-31T14:45:05;21.80;99.90
10149;DHT22;5115;50.920;6.376;2023-07-31T14:47:31;21.90;99.90
10149;DHT22;5115;50.920;6.376;2023-07-31T14:49:58;22.00;99.90
10149;DHT22;5115;50.920;6.376;2023-07-31T14:52:24;22.00;99.90
10149;DHT22;5115;50.920;6.376;2023-07-31T14:54:49;22.00;99.90
10149;DHT22;5115;50.920;6.376;2023-07-31T14:57:15;21.80;99.90
10149;DHT22;5115;50.920;6.376;2023-07-31T14:59:42;21.70;99.90
10149;DHT22;5115;50.920;6.376;2023-07-31T15:02:09;21.70;99.90
10149;DHT22;5115;50.920;6.376;2023-07-31T15:04:35;21.50;99.90
10149;DHT22;5115;50.920;6.376;2023-07-31T15:07:00;21.50;99.90
10149;DHT22;5115;50.920;6.376;2023-07-31T15:09:27;21.60;99.90
10149;DHT22;5115;50.920;6.376;2023-07-31T15:11:53;21.60;99.90
10149;DHT22;5115;50.920;6.376;2023-07-31T15:14:19;21.60;99.90
10149;DHT22;5115;50.920;6.376;2023-07-31T15:19:12;21.50;99.90
10149;DHT22;5115;50.920;6.376;2023-07-31T15:21:38;21.40;99.90
10149;DHT22;5115;50.920;6.376;2023-07-31T15:24:04;21.40;99.90
10149;DHT22;5115;50.920;6.376;2023-07-31T15:26:29;21.30;99.90
10149;DHT22;5115;50.920;6.376;2023-07-31T15:29:00;21.10;99.90
10149;DHT22;5115;50.920;6.376;2023-07-31T15:31:26;20.80;99.90
10149;DHT22;5115;50.920;6.376;2023-07-31T15:36:18;20.70;99.90
10149;DHT22;5115;50.920;6.376;2023-07-31T15:41:11;21.90;99.90
10149;DHT22;5115;50.920;6.376;2023-07-31T15:46:03;20.40;99.90
10149;DHT22;5115;50.920;6.376;2023-07-31T15:48:28;20.20;99.90
10149;DHT22;5115;50.920;6.376;2023-07-31T15:50:54;20.20;99.90
10149;DHT22;5115;50.920;6.376;2023-07-31T15:53:21;20.30;99.90
10149;DHT22;5115;50.920;6.376;2023-07-31T15:55:48;20.20;99.90
10149;DHT22;5115;50.920;6.376;2023-07-31T15:58:13;20.20;99.90
10149;DHT22;5115;50.920;6.376;2023-07-31T16:00:39;19.60;99.90
10149;DHT22;5115;50.920;6.376;2023-07-31T16:03:04;20.10;99.90
10149;DHT22;5115;50.920;6.376;2023-07-31T16:05:30;20.10;99.90
10149;DHT22;5115;50.920;6.376;2023-07-31T16:07:55;19.90;99.90
10149;DHT22;5115;50.920;6.376;2023-07-31T16:10:21;19.80;99.90
10149;DHT22;5115;50.920;6.376;2023-07-31T16:12:47;19.80;99.90
10149;DHT22;5115;50.920;6.376;2023-07-31T16:17:38;19.80;99.90